11 de agosto de 2022

Hora Código Tiempo Temp. Visibilidad Cielo nuboso Viento METAR/SPECI
12:00 p. m.
V
77 °F 15 mi - 360° 360° 12 - 17 kt METAR CYYZ 111600Z 36012G17KT 15SM SCT030 25/11 A3003 RMK CU3 SLP168 DENSITY ALT 1700FT
11:00 a. m.
V
73 °F 15 mi - 330° 330° 14 kt METAR CYYZ 111500Z 33014KT 15SM FEW025 FEW250 23/13 A3002 RMK CU1CI1 CI TR SLP166 DENSITY ALT 1600FT
10:00 a. m.
V
72 °F 15 mi - 010° 010° 12 kt METAR CYYZ 111400Z 01012KT 15SM FEW022 FEW030 FEW250 22/15 A3001 RMK CU1SC1CI1 CU TR CI TR SLP164 DENSITY ALT 1500FT
9:00 a. m.
V
70 °F 15 mi - 340° 340° 12 - 18 kt METAR CYYZ 111300Z 34012G18KT 15SM FEW020 FEW030 FEW250 21/15 A3000 RMK CF1SC1CI1 CF TR SLP158 DENSITY ALT 1400FT
8:00 a. m.
V
66 °F 15 mi - 320° 320° 14 kt METAR CYYZ 111200Z 32014KT 15SM FEW025 FEW060 FEW240 19/14 A2998 RMK CF1SC1CI1 CF TR SC TR SLP154 DENSITY ALT 1200FT
7:00 a. m.
V
64 °F 15 mi - 300° 300° 11 kt METAR CYYZ 111100Z 30011KT 15SM FEW060 FEW240 18/13 A2998 RMK SC1CI1 SC TR CI TR SLP151 DENSITY ALT 1000FT
6:00 a. m.
V
64 °F 15 mi - 310° 310° 14 kt METAR CYYZ 111000Z 31014KT 15SM FEW220 18/12 A2997 RMK CS1 SLP149 DENSITY ALT 1000FT
5:00 a. m.
V
68 °F 15 mi 22.000 ft 310° 310° 10 - 17 kt METAR CYYZ 110900Z 31010G17KT 15SM BKN220 20/10 A2996 RMK CS5 SLP147 DENSITY ALT 1200FT
4:00 a. m.
V
72 °F 15 mi 5.800 ft 300° 300° 12 kt METAR CYYZ 110800Z 30012KT 15SM BKN058 22/12 A2997 RMK SC7 SLP147 DENSITY ALT 1500FT
3:00 a. m.
V
70 °F 15 mi 5.800 ft 270° 270° 7 kt METAR CYYZ 110700Z 27007KT 15SM BKN058 21/15 A2998 RMK SC7 SLP151 DENSITY ALT 1400FT
2:00 a. m.
V
70 °F 15 mi - 270° 270° 5 kt METAR CYYZ 110600Z 27005KT 15SM SCT075 21/15 A2998 RMK AC4 SLP154 DENSITY ALT 1300FT
1:00 a. m.
V
72 °F 15 mi 6.500 ft 290° 290° 7 kt METAR CYYZ 110500Z 29007KT 15SM BKN065 22/15 A2999 RMK SC6 SLP157 DENSITY ALT 1500FT
12:00 a. m.
V
70 °F 15 mi - 270° 270° 7 kt METAR CYYZ 110400Z 27007KT 15SM FEW250 21/15 A3001 RMK CI1 CI TR SLP161 DENSITY ALT 1400FT

10 de agosto de 2022

Hora Código Tiempo Temp. Visibilidad Cielo nuboso Viento METAR/SPECI
11:00 p. m.
V
72 °F 15 mi - 270° 270° 8 kt METAR CYYZ 110300Z 27008KT 15SM SKC 22/14 A3000 RMK SLP160 DENSITY ALT 1400FT
8:00 a. m.
V
63 °F 15 mi 26.000 ft 300° 300° 4 kt METAR CYYZ 101200Z 30004KT 15SM FEW220 BKN260 17/15 A3012 RMK CC2CI3 SLP202 DENSITY ALT 800FT
7:00 a. m.
V
61 °F 15 mi 26.000 ft 330° 330° 5 kt METAR CYYZ 101100Z 33005KT 15SM FEW230 BKN260 16/15 A3011 RMK CC2CI3 SLP198 DENSITY ALT 700FT
6:00 a. m.
V
59 °F 15 mi - 310° 310° 4 kt METAR CYYZ 101000Z 31004KT 15SM SCT250 15/15 A3010 RMK CC4 SLP195 DENSITY ALT 600FT
5:00 a. m.
V
61 °F 15 mi - 350° 350° 3 kt METAR CYYZ 100900Z 35003KT 15SM FEW250 16/16 A3010 RMK CI1 CI TR SLP196 DENSITY ALT 700FT
4:00 a. m.
V
61 °F 15 mi - 340° 340° 5 kt METAR CYYZ 100800Z 34005KT 15SM SKC 16/16 A3010 RMK SLP196 DENSITY ALT 700FT
3:00 a. m.
V
63 °F 15 mi - 360° 360° 4 kt METAR CYYZ 100700Z 36004KT 15SM FEW040 17/16 A3010 RMK SC1 SLP195 DENSITY ALT 700FT
2:00 a. m.
V
64 °F 15 mi - Var Var 2 kt METAR CYYZ 100600Z VRB02KT 15SM FEW042 18/15 A3010 RMK SC1 SLP195 DENSITY ALT 900FT
1:00 a. m.
V
64 °F 15 mi - 260° 260° 3 kt METAR CYYZ 100500Z 26003KT 15SM FEW035 FEW045 18/15 A3010 RMK SC1SC1 SC TR SLP194 DENSITY ALT 900FT
12:00 a. m.
V
66 °F 15 mi 4.700 ft 240° 240° 3 kt METAR CYYZ 100400Z 24003KT 15SM SCT030 BKN047 19/16 A3009 RMK SC3SC3 SLP191 DENSITY ALT 1000FT

9 de agosto de 2022

Hora Código Tiempo Temp. Visibilidad Cielo nuboso Viento METAR/SPECI
11:00 p. m.
V
68 °F 15 mi 4.800 ft 160° 160° 4 kt METAR CYYZ 100300Z 16004KT 15SM BKN048 20/16 A3008 RMK SC6 SLP186 DENSITY ALT 1100FT
10:00 p. m.
V
68 °F 15 mi 3.500 ft 150° 150° 2 kt METAR CYYZ 100200Z 15002KT 15SM BKN035 20/15 A3007 RMK SC5 SLP183 DENSITY ALT 1200FT
9:00 p. m.
V
68 °F 15 mi - 030° 030° 4 kt METAR CYYZ 100100Z 03004KT 15SM SCT050 SCT250 20/13 A3006 RMK SC3CI1 CI TR SLP181 DENSITY ALT 1100FT
8:00 p. m.
V
70 °F 15 mi - 020° 020° 7 kt METAR CYYZ 100000Z 02007KT 15SM FEW035 SCT045 SCT080 21/14 A3005 RMK CF1SC4AC1 CF TR AC TR SLP177 DENSITY ALT 1300FT
7:00 p. m.
V
72 °F 15 mi 4.500 ft 360° 360° 9 kt METAR CYYZ 092300Z 36009KT 330V030 15SM FEW035 BKN045 BKN080 22/14 A3004 RMK CF1SC5AC1 CF TR SLP173 DENSITY ALT 1400FT
6:00 p. m.
V
72 °F 15 mi 4.900 ft 320° 320° 8 kt METAR CYYZ 092200Z 32008KT 15SM FEW035 BKN049 22/14 A3004 RMK CU2SC5 SLP173 DENSITY ALT 1400FT
5:00 p. m.
V
72 °F 15 mi 5.000 ft 330° 330° 12 kt METAR CYYZ 092100Z 33012KT 290V020 15SM SCT033 BKN050 22/14 A3004 RMK CU3SC4 SLP173 DENSITY ALT 1400FT
4:00 p. m.
V
72 °F 15 mi 4.000 ft 330° 330° 9 - 15 kt METAR CYYZ 092000Z 33009G15KT 320V020 15SM SCT031 BKN040 22/14 A3004 RMK CU3SC4 SLP173 DENSITY ALT 1400FT
3:00 p. m.
V
70 °F 15 mi 4.500 ft 030° 030° 8 kt METAR CYYZ 091900Z 03008KT 330V050 15SM SCT031 OVC045 21/15 A3004 RMK CU3SC5 SLP175 DENSITY ALT 1400FT
2:00 p. m.
V
72 °F 15 mi 3.700 ft 360° 360° 10 - 16 kt METAR CYYZ 091800Z 36010G16KT 15SM BKN037 22/14 A3004 RMK SC7 SLP175 DENSITY ALT 1400FT
1:00 p. m.
V
68 °F 15 mi 3.300 ft 340° 340° 13 kt METAR CYYZ 091700Z 34013KT 15SM BKN033 20/14 A3005 RMK SC7 SLP176 DENSITY ALT 1200FT
12:00 p. m.
V
68 °F 15 mi 3.200 ft 350° 350° 10 kt METAR CYYZ 091600Z 35010KT 15SM BKN032 20/15 A3004 RMK SC7 SLP174 DENSITY ALT 1200FT
11:00 a. m.
M
68 °F 15 mi 2.400 ft 330° 330° 14 kt METAR CYYZ 091500Z 33014KT 15SM BKN024 BKN040 20/15 A3004 RMK SC6SC1 SLP171 DENSITY ALT 1200FT
Datos más antiguos

Nosotros y terceros seguimos tu comportamiento en Internet en nuestro sitio web con cookies. Si continúas, asumimos que estás de acuerdo con nuestra política de cookies. Más información